sensor_id;sensor_type;location;lat;lon;timestamp;temperature;humidity
42201;DHT22;27869;51.442;7.540;2023-06-24T00:01:29;16.20;99.90
42201;DHT22;27869;51.442;7.540;2023-06-24T00:03:59;16.10;99.90
42201;DHT22;27869;51.442;7.540;2023-06-24T00:06:25;16.10;99.90
42201;DHT22;27869;51.442;7.540;2023-06-24T00:08:53;16.10;99.90
42201;DHT22;27869;51.442;7.540;2023-06-24T00:11:27;16.10;99.90
42201;DHT22;27869;51.442;7.540;2023-06-24T00:13:54;16.00;99.90
42201;DHT22;27869;51.442;7.540;2023-06-24T00:16:22;16.00;99.90
42201;DHT22;27869;51.442;7.540;2023-06-24T00:18:53;16.00;99.90
42201;DHT22;27869;51.442;7.540;2023-06-24T00:21:20;16.00;99.90
42201;DHT22;27869;51.442;7.540;2023-06-24T00:23:48;15.90;99.90
42201;DHT22;27869;51.442;7.540;2023-06-24T00:26:15;15.90;99.90
42201;DHT22;27869;51.442;7.540;2023-06-24T00:28:44;15.90;99.90
42201;DHT22;27869;51.442;7.540;2023-06-24T00:31:11;15.80;99.90
42201;DHT22;27869;51.442;7.540;2023-06-24T00:33:38;15.80;99.90
42201;DHT22;27869;51.442;7.540;2023-06-24T00:36:05;15.80;99.90
42201;DHT22;27869;51.442;7.540;2023-06-24T00:38:34;15.70;99.90
42201;DHT22;27869;51.442;7.540;2023-06-24T00:41:00;15.70;99.90
42201;DHT22;27869;51.442;7.540;2023-06-24T00:43:28;15.70;99.90
42201;DHT22;27869;51.442;7.540;2023-06-24T00:45:58;15.70;99.90
42201;DHT22;27869;51.442;7.540;2023-06-24T00:48:24;15.60;99.90
42201;DHT22;27869;51.442;7.540;2023-06-24T00:50:52;15.70;99.90
42201;DHT22;27869;51.442;7.540;2023-06-24T00:53:19;15.60;99.90
42201;DHT22;27869;51.442;7.540;2023-06-24T00:55:50;15.60;99.90
42201;DHT22;27869;51.442;7.540;2023-06-24T00:58:20;15.60;99.90
42201;DHT22;27869;51.442;7.540;2023-06-24T01:00:48;15.50;99.90
42201;DHT22;27869;51.442;7.540;2023-06-24T01:03:23;15.50;99.90
42201;DHT22;27869;51.442;7.540;2023-06-24T01:05:51;15.50;99.90
42201;DHT22;27869;51.442;7.540;2023-06-24T01:08:18;15.50;99.90
42201;DHT22;27869;51.442;7.540;2023-06-24T01:10:48;15.50;99.90
42201;DHT22;27869;51.442;7.540;2023-06-24T01:13:15;15.50;99.90
42201;DHT22;27869;51.442;7.540;2023-06-24T01:15:43;15.40;99.90
42201;DHT22;27869;51.442;7.540;2023-06-24T01:18:13;15.40;99.90
42201;DHT22;27869;51.442;7.540;2023-06-24T01:20:47;15.40;99.90
42201;DHT22;27869;51.442;7.540;2023-06-24T01:26:47;15.40;99.90
42201;DHT22;27869;51.442;7.540;2023-06-24T01:29:46;15.40;99.90
42201;DHT22;27869;51.442;7.540;2023-06-24T01:32:22;15.30;99.90
42201;DHT22;27869;51.442;7.540;2023-06-24T01:34:57;15.30;99.90
42201;DHT22;27869;51.442;7.540;2023-06-24T01:37:28;15.30;99.90
42201;DHT22;27869;51.442;7.540;2023-06-24T01:40:06;15.30;99.90
42201;DHT22;27869;51.442;7.540;2023-06-24T01:42:38;15.20;99.90
42201;DHT22;27869;51.442;7.540;2023-06-24T01:45:06;15.20;99.90
42201;DHT22;27869;51.442;7.540;2023-06-24T01:47:38;15.20;99.90
42201;DHT22;27869;51.442;7.540;2023-06-24T01:50:07;15.20;99.90
42201;DHT22;27869;51.442;7.540;2023-06-24T01:52:35;15.10;99.90
42201;DHT22;27869;51.442;7.540;2023-06-24T01:55:04;15.20;99.90
42201;DHT22;27869;51.442;7.540;2023-06-24T01:57:34;15.10;99.90
42201;DHT22;27869;51.442;7.540;2023-06-24T02:00:03;15.10;99.90
42201;DHT22;27869;51.442;7.540;2023-06-24T02:02:33;15.10;99.90
42201;DHT22;27869;51.442;7.540;2023-06-24T02:05:03;15.10;99.90
42201;DHT22;27869;51.442;7.540;2023-06-24T02:07:32;15.00;99.90
42201;DHT22;27869;51.442;7.540;2023-06-24T02:10:00;15.00;99.90
42201;DHT22;27869;51.442;7.540;2023-06-24T02:12:28;15.00;99.90
42201;DHT22;27869;51.442;7.540;2023-06-24T02:14:56;15.00;99.90
42201;DHT22;27869;51.442;7.540;2023-06-24T02:17:24;14.90;99.90
42201;DHT22;27869;51.442;7.540;2023-06-24T02:19:52;14.90;99.90
42201;DHT22;27869;51.442;7.540;2023-06-24T02:22:22;14.90;99.90
42201;DHT22;27869;51.442;7.540;2023-06-24T02:24:50;14.90;99.90
42201;DHT22;27869;51.442;7.540;2023-06-24T02:27:18;14.90;99.90
42201;DHT22;27869;51.442;7.540;2023-06-24T02:29:46;14.90;99.90
42201;DHT22;27869;51.442;7.540;2023-06-24T02:32:14;14.80;99.90
42201;DHT22;27869;51.442;7.540;2023-06-24T02:34:41;14.80;99.90
42201;DHT22;27869;51.442;7.540;2023-06-24T02:37:07;14.80;99.90
42201;DHT22;27869;51.442;7.540;2023-06-24T02:39:36;14.80;99.90
42201;DHT22;27869;51.442;7.540;2023-06-24T02:42:09;14.70;99.90
42201;DHT22;27869;51.442;7.540;2023-06-24T02:44:39;14.70;99.90
42201;DHT22;27869;51.442;7.540;2023-06-24T02:47:09;14.70;99.90
42201;DHT22;27869;51.442;7.540;2023-06-24T02:49:37;14.70;99.90
42201;DHT22;27869;51.442;7.540;2023-06-24T02:52:04;14.60;99.90
42201;DHT22;27869;51.442;7.540;2023-06-24T02:54:32;14.60;99.90
42201;DHT22;27869;51.442;7.540;2023-06-24T02:57:01;14.60;99.90
42201;DHT22;27869;51.442;7.540;2023-06-24T02:59:28;14.60;99.90
42201;DHT22;27869;51.442;7.540;2023-06-24T03:01:55;14.60;99.90
42201;DHT22;27869;51.442;7.540;2023-06-24T03:04:22;14.60;99.90
42201;DHT22;27869;51.442;7.540;2023-06-24T03:06:49;14.50;99.90
42201;DHT22;27869;51.442;7.540;2023-06-24T03:09:18;14.50;99.90
42201;DHT22;27869;51.442;7.540;2023-06-24T03:11:45;14.50;99.90
42201;DHT22;27869;51.442;7.540;2023-06-24T03:14:13;14.50;99.90
42201;DHT22;27869;51.442;7.540;2023-06-24T03:16:41;14.50;99.90
42201;DHT22;27869;51.442;7.540;2023-06-24T03:19:08;14.50;99.90
42201;DHT22;27869;51.442;7.540;2023-06-24T03:21:35;14.50;99.90
42201;DHT22;27869;51.442;7.540;2023-06-24T03:24:02;14.40;99.90
42201;DHT22;27869;51.442;7.540;2023-06-24T03:26:32;14.40;99.90
42201;DHT22;27869;51.442;7.540;2023-06-24T03:28:59;14.40;99.90
42201;DHT22;27869;51.442;7.540;2023-06-24T03:31:27;14.40;99.90
42201;DHT22;27869;51.442;7.540;2023-06-24T03:33:54;14.40;99.90
42201;DHT22;27869;51.442;7.540;2023-06-24T03:36:21;14.40;99.90
42201;DHT22;27869;51.442;7.540;2023-06-24T03:38:49;14.40;99.90
42201;DHT22;27869;51.442;7.540;2023-06-24T03:41:16;14.40;99.90
42201;DHT22;27869;51.442;7.540;2023-06-24T03:43:43;14.40;99.90
42201;DHT22;27869;51.442;7.540;2023-06-24T03:46:10;14.40;99.90
42201;DHT22;27869;51.442;7.540;2023-06-24T03:48:39;14.40;99.90
42201;DHT22;27869;51.442;7.540;2023-06-24T03:51:06;14.30;99.90
42201;DHT22;27869;51.442;7.540;2023-06-24T03:53:33;14.30;99.90
42201;DHT22;27869;51.442;7.540;2023-06-24T03:55:59;14.30;99.90
42201;DHT22;27869;51.442;7.540;2023-06-24T03:58:27;14.30;99.90
42201;DHT22;27869;51.442;7.540;2023-06-24T04:00:54;14.30;99.90
42201;DHT22;27869;51.442;7.540;2023-06-24T04:03:22;14.30;99.90
42201;DHT22;27869;51.442;7.540;2023-06-24T04:05:53;14.40;99.90
42201;DHT22;27869;51.442;7.540;2023-06-24T04:08:19;14.40;99.90
42201;DHT22;27869;51.442;7.540;2023-06-24T04:10:46;14.30;99.90
42201;DHT22;27869;51.442;7.540;2023-06-24T04:13:13;14.40;99.90
42201;DHT22;27869;51.442;7.540;2023-06-24T04:15:40;14.40;99.90
42201;DHT22;27869;51.442;7.540;2023-06-24T04:18:08;14.50;99.90
42201;DHT22;27869;51.442;7.540;2023-06-24T04:20:35;14.50;99.90
42201;DHT22;27869;51.442;7.540;2023-06-24T04:23:03;14.50;99.90
42201;DHT22;27869;51.442;7.540;2023-06-24T04:25:31;14.50;99.90
42201;DHT22;27869;51.442;7.540;2023-06-24T04:27:57;14.50;99.90
42201;DHT22;27869;51.442;7.540;2023-06-24T04:30:24;14.60;99.90
42201;DHT22;27869;51.442;7.540;2023-06-24T04:32:51;14.60;99.90
42201;DHT22;27869;51.442;7.540;2023-06-24T04:35:18;14.70;99.90
42201;DHT22;27869;51.442;7.540;2023-06-24T04:37:45;14.70;99.90
42201;DHT22;27869;51.442;7.540;2023-06-24T04:40:13;14.70;99.90
42201;DHT22;27869;51.442;7.540;2023-06-24T04:42:40;14.80;99.90
42201;DHT22;27869;51.442;7.540;2023-06-24T04:45:07;14.80;99.90
42201;DHT22;27869;51.442;7.540;2023-06-24T04:47:34;14.80;99.90
42201;DHT22;27869;51.442;7.540;2023-06-24T04:50:01;14.90;99.90
42201;DHT22;27869;51.442;7.540;2023-06-24T04:52:28;14.90;99.90
42201;DHT22;27869;51.442;7.540;2023-06-24T04:54:55;14.90;99.90
42201;DHT22;27869;51.442;7.540;2023-06-24T04:57:27;14.90;99.90
42201;DHT22;27869;51.442;7.540;2023-06-24T04:59:54;14.90;99.90
42201;DHT22;27869;51.442;7.540;2023-06-24T05:02:21;15.00;99.90
42201;DHT22;27869;51.442;7.540;2023-06-24T05:04:48;15.00;99.90
42201;DHT22;27869;51.442;7.540;2023-06-24T05:07:15;15.00;99.90
42201;DHT22;27869;51.442;7.540;2023-06-24T05:09:42;15.10;99.90
42201;DHT22;27869;51.442;7.540;2023-06-24T05:12:09;15.10;99.90
42201;DHT22;27869;51.442;7.540;2023-06-24T05:14:37;15.20;99.90
42201;DHT22;27869;51.442;7.540;2023-06-24T05:17:04;15.20;99.90
42201;DHT22;27869;51.442;7.540;2023-06-24T05:19:31;15.30;99.90
42201;DHT22;27869;51.442;7.540;2023-06-24T05:21:58;15.30;99.90
42201;DHT22;27869;51.442;7.540;2023-06-24T05:24:25;15.40;99.90
42201;DHT22;27869;51.442;7.540;2023-06-24T05:26:52;15.50;99.90
42201;DHT22;27869;51.442;7.540;2023-06-24T05:29:19;15.60;99.90
42201;DHT22;27869;51.442;7.540;2023-06-24T05:31:47;15.70;99.90
42201;DHT22;27869;51.442;7.540;2023-06-24T05:34:14;15.80;99.90
42201;DHT22;27869;51.442;7.540;2023-06-24T05:36:41;15.90;99.90
42201;DHT22;27869;51.442;7.540;2023-06-24T05:39:08;16.00;99.90
42201;DHT22;27869;51.442;7.540;2023-06-24T05:41:35;16.10;99.90
42201;DHT22;27869;51.442;7.540;2023-06-24T05:44:02;16.20;99.90
42201;DHT22;27869;51.442;7.540;2023-06-24T05:46:30;16.30;99.90
42201;DHT22;27869;51.442;7.540;2023-06-24T05:48:58;16.40;99.90
42201;DHT22;27869;51.442;7.540;2023-06-24T05:51:25;16.50;99.90
42201;DHT22;27869;51.442;7.540;2023-06-24T05:53:52;16.60;99.90
42201;DHT22;27869;51.442;7.540;2023-06-24T05:56:19;16.70;99.90
42201;DHT22;27869;51.442;7.540;2023-06-24T05:58:46;16.80;99.90
42201;DHT22;27869;51.442;7.540;2023-06-24T06:01:13;16.90;99.90
42201;DHT22;27869;51.442;7.540;2023-06-24T06:03:40;17.00;99.90
42201;DHT22;27869;51.442;7.540;2023-06-24T06:06:08;17.00;99.90
42201;DHT22;27869;51.442;7.540;2023-06-24T06:08:35;17.10;99.90
42201;DHT22;27869;51.442;7.540;2023-06-24T06:11:02;17.20;99.90
42201;DHT22;27869;51.442;7.540;2023-06-24T06:13:29;17.30;99.90
42201;DHT22;27869;51.442;7.540;2023-06-24T06:15:56;17.40;99.90
42201;DHT22;27869;51.442;7.540;2023-06-24T06:18:23;17.50;99.90
42201;DHT22;27869;51.442;7.540;2023-06-24T06:20:50;17.60;99.90
42201;DHT22;27869;51.442;7.540;2023-06-24T06:23:18;17.70;99.90
42201;DHT22;27869;51.442;7.540;2023-06-24T06:25:45;17.70;99.90
42201;DHT22;27869;51.442;7.540;2023-06-24T06:28:12;17.80;99.90
42201;DHT22;27869;51.442;7.540;2023-06-24T06:30:39;18.00;99.90
42201;DHT22;27869;51.442;7.540;2023-06-24T06:33:08;18.00;99.90
42201;DHT22;27869;51.442;7.540;2023-06-24T06:35:35;18.10;99.90
42201;DHT22;27869;51.442;7.540;2023-06-24T06:38:02;18.20;99.90
42201;DHT22;27869;51.442;7.540;2023-06-24T06:40:30;18.30;99.90
42201;DHT22;27869;51.442;7.540;2023-06-24T06:42:57;18.40;99.90
42201;DHT22;27869;51.442;7.540;2023-06-24T06:45:24;18.40;99.90
42201;DHT22;27869;51.442;7.540;2023-06-24T06:47:51;18.50;99.90
42201;DHT22;27869;51.442;7.540;2023-06-24T06:50:17;18.60;99.90
42201;DHT22;27869;51.442;7.540;2023-06-24T06:52:44;18.70;99.90
42201;DHT22;27869;51.442;7.540;2023-06-24T06:55:11;18.80;99.90
42201;DHT22;27869;51.442;7.540;2023-06-24T06:57:39;18.90;99.90
42201;DHT22;27869;51.442;7.540;2023-06-24T07:00:08;19.10;99.90
42201;DHT22;27869;51.442;7.540;2023-06-24T07:02:35;19.30;99.90
42201;DHT22;27869;51.442;7.540;2023-06-24T07:05:02;19.40;99.90
42201;DHT22;27869;51.442;7.540;2023-06-24T07:07:29;19.50;99.90
42201;DHT22;27869;51.442;7.540;2023-06-24T07:09:56;19.60;99.90
42201;DHT22;27869;51.442;7.540;2023-06-24T07:12:22;19.70;99.90
42201;DHT22;27869;51.442;7.540;2023-06-24T07:14:51;19.80;99.90
42201;DHT22;27869;51.442;7.540;2023-06-24T07:17:18;19.90;99.90
42201;DHT22;27869;51.442;7.540;2023-06-24T07:19:44;20.00;99.90
42201;DHT22;27869;51.442;7.540;2023-06-24T07:22:11;20.10;99.90
42201;DHT22;27869;51.442;7.540;2023-06-24T07:24:38;20.20;99.90
42201;DHT22;27869;51.442;7.540;2023-06-24T07:27:05;20.30;99.90
42201;DHT22;27869;51.442;7.540;2023-06-24T07:29:32;20.40;99.90
42201;DHT22;27869;51.442;7.540;2023-06-24T07:32:01;20.50;99.90
42201;DHT22;27869;51.442;7.540;2023-06-24T07:34:29;20.70;99.90
42201;DHT22;27869;51.442;7.540;2023-06-24T07:36:56;20.80;99.90
42201;DHT22;27869;51.442;7.540;2023-06-24T07:39:23;20.90;99.90
42201;DHT22;27869;51.442;7.540;2023-06-24T07:41:50;21.00;99.90
42201;DHT22;27869;51.442;7.540;2023-06-24T07:44:17;21.00;99.90
42201;DHT22;27869;51.442;7.540;2023-06-24T07:46:44;21.20;99.90
42201;DHT22;27869;51.442;7.540;2023-06-24T07:49:12;21.20;99.90
42201;DHT22;27869;51.442;7.540;2023-06-24T07:51:39;21.30;99.90
42201;DHT22;27869;51.442;7.540;2023-06-24T07:54:06;21.50;99.90
42201;DHT22;27869;51.442;7.540;2023-06-24T07:56:33;21.60;99.90
42201;DHT22;27869;51.442;7.540;2023-06-24T07:59:00;21.60;99.90
42201;DHT22;27869;51.442;7.540;2023-06-24T08:01:27;21.70;99.90
42201;DHT22;27869;51.442;7.540;2023-06-24T08:03:54;21.80;99.90
42201;DHT22;27869;51.442;7.540;2023-06-24T08:06:22;21.90;99.90
42201;DHT22;27869;51.442;7.540;2023-06-24T08:08:49;22.10;99.90
42201;DHT22;27869;51.442;7.540;2023-06-24T08:11:16;22.20;99.90
42201;DHT22;27869;51.442;7.540;2023-06-24T08:13:43;22.40;99.90
42201;DHT22;27869;51.442;7.540;2023-06-24T08:16:10;22.60;99.90
42201;DHT22;27869;51.442;7.540;2023-06-24T08:18:37;22.80;99.90
42201;DHT22;27869;51.442;7.540;2023-06-24T08:21:04;22.90;99.90
42201;DHT22;27869;51.442;7.540;2023-06-24T08:23:33;23.00;99.90
42201;DHT22;27869;51.442;7.540;2023-06-24T08:25:59;23.10;99.90
42201;DHT22;27869;51.442;7.540;2023-06-24T08:28:26;23.30;99.90
42201;DHT22;27869;51.442;7.540;2023-06-24T08:30:53;23.40;99.90
42201;DHT22;27869;51.442;7.540;2023-06-24T08:33:20;23.50;99.90
42201;DHT22;27869;51.442;7.540;2023-06-24T08:35:47;23.60;99.90
42201;DHT22;27869;51.442;7.540;2023-06-24T08:38:14;23.70;99.90
42201;DHT22;27869;51.442;7.540;2023-06-24T08:40:42;23.80;99.90
42201;DHT22;27869;51.442;7.540;2023-06-24T08:43:09;23.90;99.90
42201;DHT22;27869;51.442;7.540;2023-06-24T08:45:36;24.00;99.90
42201;DHT22;27869;51.442;7.540;2023-06-24T08:48:03;24.10;99.90
42201;DHT22;27869;51.442;7.540;2023-06-24T08:50:35;24.20;99.90
42201;DHT22;27869;51.442;7.540;2023-06-24T08:53:03;24.30;99.90
42201;DHT22;27869;51.442;7.540;2023-06-24T08:55:40;24.50;99.90
42201;DHT22;27869;51.442;7.540;2023-06-24T08:58:10;24.50;99.90
42201;DHT22;27869;51.442;7.540;2023-06-24T09:00:37;24.50;99.90
42201;DHT22;27869;51.442;7.540;2023-06-24T09:03:04;24.60;99.90
42201;DHT22;27869;51.442;7.540;2023-06-24T09:05:30;24.70;99.90
42201;DHT22;27869;51.442;7.540;2023-06-24T09:07:57;24.80;99.90
42201;DHT22;27869;51.442;7.540;2023-06-24T09:10:32;25.00;99.90
42201;DHT22;27869;51.442;7.540;2023-06-24T09:12:59;25.20;99.90
42201;DHT22;27869;51.442;7.540;2023-06-24T09:15:31;25.50;99.90
42201;DHT22;27869;51.442;7.540;2023-06-24T09:17:58;25.70;99.90
42201;DHT22;27869;51.442;7.540;2023-06-24T09:20:26;25.70;99.90
42201;DHT22;27869;51.442;7.540;2023-06-24T09:22:58;25.90;99.90
42201;DHT22;27869;51.442;7.540;2023-06-24T09:25:26;25.90;99.90
42201;DHT22;27869;51.442;7.540;2023-06-24T09:27:53;26.10;99.90
42201;DHT22;27869;51.442;7.540;2023-06-24T09:30:22;26.20;99.90
42201;DHT22;27869;51.442;7.540;2023-06-24T09:32:52;26.10;99.90
42201;DHT22;27869;51.442;7.540;2023-06-24T09:35:20;26.10;99.90
42201;DHT22;27869;51.442;7.540;2023-06-24T09:37:51;26.10;99.90
42201;DHT22;27869;51.442;7.540;2023-06-24T09:40:18;26.20;99.90
42201;DHT22;27869;51.442;7.540;2023-06-24T09:42:52;26.20;99.90
42201;DHT22;27869;51.442;7.540;2023-06-24T09:45:22;26.30;99.90
42201;DHT22;27869;51.442;7.540;2023-06-24T09:47:49;26.30;99.90
42201;DHT22;27869;51.442;7.540;2023-06-24T09:50:17;26.40;99.90
42201;DHT22;27869;51.442;7.540;2023-06-24T09:52:44;26.50;99.90
42201;DHT22;27869;51.442;7.540;2023-06-24T09:55:13;26.60;99.90
42201;DHT22;27869;51.442;7.540;2023-06-24T09:57:41;26.70;99.90
42201;DHT22;27869;51.442;7.540;2023-06-24T10:00:10;26.90;99.90
42201;DHT22;27869;51.442;7.540;2023-06-24T10:02:37;27.10;99.90
42201;DHT22;27869;51.442;7.540;2023-06-24T10:05:05;27.30;99.90
42201;DHT22;27869;51.442;7.540;2023-06-24T10:07:34;27.50;99.90
42201;DHT22;27869;51.442;7.540;2023-06-24T10:10:02;27.60;99.90
42201;DHT22;27869;51.442;7.540;2023-06-24T10:12:29;27.70;99.90
42201;DHT22;27869;51.442;7.540;2023-06-24T10:14:57;27.90;99.90
42201;DHT22;27869;51.442;7.540;2023-06-24T10:17:25;28.00;99.90
42201;DHT22;27869;51.442;7.540;2023-06-24T10:19:53;27.80;99.90
42201;DHT22;27869;51.442;7.540;2023-06-24T10:22:22;27.70;99.90
42201;DHT22;27869;51.442;7.540;2023-06-24T10:24:51;27.70;99.30
42201;DHT22;27869;51.442;7.540;2023-06-24T10:27:20;27.70;99.90
42201;DHT22;27869;51.442;7.540;2023-06-24T10:29:52;27.80;99.90
42201;DHT22;27869;51.442;7.540;2023-06-24T10:32:21;27.90;99.50
42201;DHT22;27869;51.442;7.540;2023-06-24T10:34:53;28.00;99.90
42201;DHT22;27869;51.442;7.540;2023-06-24T10:37:22;28.20;99.00
42201;DHT22;27869;51.442;7.540;2023-06-24T10:39:52;28.20;96.40
42201;DHT22;27869;51.442;7.540;2023-06-24T10:42:36;28.20;98.80
42201;DHT22;27869;51.442;7.540;2023-06-24T10:45:17;28.40;97.00
42201;DHT22;27869;51.442;7.540;2023-06-24T10:47:45;28.40;94.20
42201;DHT22;27869;51.442;7.540;2023-06-24T10:50:13;28.50;97.90
42201;DHT22;27869;51.442;7.540;2023-06-24T10:52:42;28.60;97.40
42201;DHT22;27869;51.442;7.540;2023-06-24T10:55:13;28.80;97.60
42201;DHT22;27869;51.442;7.540;2023-06-24T10:57:40;28.90;95.70
42201;DHT22;27869;51.442;7.540;2023-06-24T11:00:08;29.00;96.40
42201;DHT22;27869;51.442;7.540;2023-06-24T11:02:35;29.10;95.90
42201;DHT22;27869;51.442;7.540;2023-06-24T11:05:04;29.20;95.50
42201;DHT22;27869;51.442;7.540;2023-06-24T11:07:33;29.10;96.20
42201;DHT22;27869;51.442;7.540;2023-06-24T11:10:02;29.20;95.20
42201;DHT22;27869;51.442;7.540;2023-06-24T11:12:33;29.30;93.00
42201;DHT22;27869;51.442;7.540;2023-06-24T11:15:01;29.40;93.50
42201;DHT22;27869;51.442;7.540;2023-06-24T11:17:28;29.30;93.60
42201;DHT22;27869;51.442;7.540;2023-06-24T11:19:56;29.40;93.00
42201;DHT22;27869;51.442;7.540;2023-06-24T11:22:24;29.50;93.50
42201;DHT22;27869;51.442;7.540;2023-06-24T11:24:52;29.50;92.50
42201;DHT22;27869;51.442;7.540;2023-06-24T11:27:25;29.50;91.50
42201;DHT22;27869;51.442;7.540;2023-06-24T11:29:54;29.40;91.50
42201;DHT22;27869;51.442;7.540;2023-06-24T11:32:21;29.50;92.00
42201;DHT22;27869;51.442;7.540;2023-06-24T11:34:48;29.50;92.80
42201;DHT22;27869;51.442;7.540;2023-06-24T11:37:17;29.50;90.60
42201;DHT22;27869;51.442;7.540;2023-06-24T11:39:45;29.60;91.30
42201;DHT22;27869;51.442;7.540;2023-06-24T11:42:28;29.60;91.20
42201;DHT22;27869;51.442;7.540;2023-06-24T11:45:00;29.70;88.90
42201;DHT22;27869;51.442;7.540;2023-06-24T11:47:31;29.60;86.80
42201;DHT22;27869;51.442;7.540;2023-06-24T11:49:58;29.30;88.40
42201;DHT22;27869;51.442;7.540;2023-06-24T11:52:39;29.20;90.50
42201;DHT22;27869;51.442;7.540;2023-06-24T11:55:21;29.10;87.40
42201;DHT22;27869;51.442;7.540;2023-06-24T11:57:53;29.20;90.20
42201;DHT22;27869;51.442;7.540;2023-06-24T12:00:22;29.10;89.10
42201;DHT22;27869;51.442;7.540;2023-06-24T12:02:53;29.00;90.20
42201;DHT22;27869;51.442;7.540;2023-06-24T12:05:25;28.90;88.80
42201;DHT22;27869;51.442;7.540;2023-06-24T12:08:01;28.80;88.90
42201;DHT22;27869;51.442;7.540;2023-06-24T12:10:29;28.60;87.00
42201;DHT22;27869;51.442;7.540;2023-06-24T12:12:57;28.50;87.70
42201;DHT22;27869;51.442;7.540;2023-06-24T12:15:26;28.50;87.80
42201;DHT22;27869;51.442;7.540;2023-06-24T12:17:54;28.40;87.20
42201;DHT22;27869;51.442;7.540;2023-06-24T12:20:20;28.40;84.30
42201;DHT22;27869;51.442;7.540;2023-06-24T12:22:48;28.40;86.70
42201;DHT22;27869;51.442;7.540;2023-06-24T12:25:16;28.40;87.10
42201;DHT22;27869;51.442;7.540;2023-06-24T12:27:44;28.40;86.60
42201;DHT22;27869;51.442;7.540;2023-06-24T12:30:11;28.30;86.60
42201;DHT22;27869;51.442;7.540;2023-06-24T12:32:40;28.40;87.30
42201;DHT22;27869;51.442;7.540;2023-06-24T12:35:07;28.40;85.10
42201;DHT22;27869;51.442;7.540;2023-06-24T12:37:35;28.40;85.80
42201;DHT22;27869;51.442;7.540;2023-06-24T12:40:02;28.40;87.60
42201;DHT22;27869;51.442;7.540;2023-06-24T12:42:29;28.40;87.80
42201;DHT22;27869;51.442;7.540;2023-06-24T12:44:56;28.30;85.70
42201;DHT22;27869;51.442;7.540;2023-06-24T12:47:23;28.30;86.40
42201;DHT22;27869;51.442;7.540;2023-06-24T12:49:51;28.20;84.10
42201;DHT22;27869;51.442;7.540;2023-06-24T12:52:19;28.20;84.60
42201;DHT22;27869;51.442;7.540;2023-06-24T12:54:46;28.20;84.40
42201;DHT22;27869;51.442;7.540;2023-06-24T12:57:14;28.10;84.60
42201;DHT22;27869;51.442;7.540;2023-06-24T12:59:40;28.00;82.30
42201;DHT22;27869;51.442;7.540;2023-06-24T13:02:07;27.90;78.80
42201;DHT22;27869;51.442;7.540;2023-06-24T13:04:34;27.80;81.10
42201;DHT22;27869;51.442;7.540;2023-06-24T13:07:02;27.80;81.20
42201;DHT22;27869;51.442;7.540;2023-06-24T13:09:30;27.70;80.90
42201;DHT22;27869;51.442;7.540;2023-06-24T13:11:57;27.60;81.80
42201;DHT22;27869;51.442;7.540;2023-06-24T13:14:24;27.60;80.00
42201;DHT22;27869;51.442;7.540;2023-06-24T13:16:52;27.50;80.30
42201;DHT22;27869;51.442;7.540;2023-06-24T13:19:19;27.50;78.50
42201;DHT22;27869;51.442;7.540;2023-06-24T13:21:46;27.50;81.60
42201;DHT22;27869;51.442;7.540;2023-06-24T13:24:14;27.50;82.60
42201;DHT22;27869;51.442;7.540;2023-06-24T13:26:41;27.50;83.50
42201;DHT22;27869;51.442;7.540;2023-06-24T13:29:08;27.40;82.90
42201;DHT22;27869;51.442;7.540;2023-06-24T13:31:35;27.40;82.40
42201;DHT22;27869;51.442;7.540;2023-06-24T13:34:01;27.40;80.30
42201;DHT22;27869;51.442;7.540;2023-06-24T13:36:31;27.40;79.70
42201;DHT22;27869;51.442;7.540;2023-06-24T13:39:01;27.40;78.50
42201;DHT22;27869;51.442;7.540;2023-06-24T13:41:29;27.40;77.80
42201;DHT22;27869;51.442;7.540;2023-06-24T13:43:58;27.30;77.50
42201;DHT22;27869;51.442;7.540;2023-06-24T13:46:25;27.30;77.50
42201;DHT22;27869;51.442;7.540;2023-06-24T13:48:52;27.30;74.40
42201;DHT22;27869;51.442;7.540;2023-06-24T13:51:19;27.20;75.00
42201;DHT22;27869;51.442;7.540;2023-06-24T13:53:47;27.20;80.00
42201;DHT22;27869;51.442;7.540;2023-06-24T13:56:14;27.20;75.50
42201;DHT22;27869;51.442;7.540;2023-06-24T13:58:43;27.10;71.90
42201;DHT22;27869;51.442;7.540;2023-06-24T14:01:10;27.10;74.70
42201;DHT22;27869;51.442;7.540;2023-06-24T14:03:37;27.10;76.10
42201;DHT22;27869;51.442;7.540;2023-06-24T14:06:04;27.10;76.00
42201;DHT22;27869;51.442;7.540;2023-06-24T14:08:32;27.10;76.00
42201;DHT22;27869;51.442;7.540;2023-06-24T14:10:59;27.00;75.20
42201;DHT22;27869;51.442;7.540;2023-06-24T14:13:27;27.00;75.90
42201;DHT22;27869;51.442;7.540;2023-06-24T14:15:55;27.00;76.70
42201;DHT22;27869;51.442;7.540;2023-06-24T14:18:22;27.00;76.20
42201;DHT22;27869;51.442;7.540;2023-06-24T14:20:50;27.00;76.60
42201;DHT22;27869;51.442;7.540;2023-06-24T14:23:17;26.90;76.10
42201;DHT22;27869;51.442;7.540;2023-06-24T14:25:44;26.90;75.70
42201;DHT22;27869;51.442;7.540;2023-06-24T14:28:11;26.90;75.80
42201;DHT22;27869;51.442;7.540;2023-06-24T14:30:37;26.90;76.20
42201;DHT22;27869;51.442;7.540;2023-06-24T14:33:06;26.90;75.90
42201;DHT22;27869;51.442;7.540;2023-06-24T14:35:32;26.80;77.30
42201;DHT22;27869;51.442;7.540;2023-06-24T14:37:59;26.80;76.60
42201;DHT22;27869;51.442;7.540;2023-06-24T14:40:26;26.70;76.80
42201;DHT22;27869;51.442;7.540;2023-06-24T14:42:53;26.70;76.60
42201;DHT22;27869;51.442;7.540;2023-06-24T14:45:20;26.70;76.60
42201;DHT22;27869;51.442;7.540;2023-06-24T14:47:47;26.70;77.40
42201;DHT22;27869;51.442;7.540;2023-06-24T14:50:15;26.70;76.10
42201;DHT22;27869;51.442;7.540;2023-06-24T14:52:42;26.70;76.30
42201;DHT22;27869;51.442;7.540;2023-06-24T14:55:09;26.70;76.90
42201;DHT22;27869;51.442;7.540;2023-06-24T14:57:36;26.70;79.90
42201;DHT22;27869;51.442;7.540;2023-06-24T15:00:05;26.70;79.90
42201;DHT22;27869;51.442;7.540;2023-06-24T15:02:32;26.70;78.90
42201;DHT22;27869;51.442;7.540;2023-06-24T15:04:59;26.80;78.20
42201;DHT22;27869;51.442;7.540;2023-06-24T15:07:27;26.80;77.60
42201;DHT22;27869;51.442;7.540;2023-06-24T15:09:54;26.80;76.50
42201;DHT22;27869;51.442;7.540;2023-06-24T15:12:21;26.80;77.80
42201;DHT22;27869;51.442;7.540;2023-06-24T15:14:48;26.80;76.80
42201;DHT22;27869;51.442;7.540;2023-06-24T15:17:14;26.80;76.30
42201;DHT22;27869;51.442;7.540;2023-06-24T15:19:41;26.90;77.10
42201;DHT22;27869;51.442;7.540;2023-06-24T15:22:08;26.80;78.30
42201;DHT22;27869;51.442;7.540;2023-06-24T15:24:37;26.90;78.90
42201;DHT22;27869;51.442;7.540;2023-06-24T15:27:04;26.90;79.30
42201;DHT22;27869;51.442;7.540;2023-06-24T15:29:31;26.90;78.20
42201;DHT22;27869;51.442;7.540;2023-06-24T15:31:58;26.90;78.20
42201;DHT22;27869;51.442;7.540;2023-06-24T15:34:24;26.90;76.90
42201;DHT22;27869;51.442;7.540;2023-06-24T15:36:51;27.00;77.60
42201;DHT22;27869;51.442;7.540;2023-06-24T15:39:18;26.90;77.40